航空気象通報

ウインドサーファーのための航空気象通報による風予報です。

9/10-9/12の航空気象通報

2016年09月15日 23時52分56秒 | TAF

羽田空港
TAF RJTT 151105Z 1512/1618 08008KT 9999 FEW010 BKN020
BECMG 1515/1517 05010KT
BECMG 1522/1524 10010KT
TEMPO 1600/1606 4000 SHRA BR FEW005 BKN008
BECMG 1609/1612 04006KT
日本時間15日21-24時:080度から8ノットの風
16日00-02時:風が変化
02-07時:050度から10ノットの風
07-09時:風が変化
09-18時:100度から10ノットの風
18-21時:風が変化
21時-17日03時:040度から6ノットの風

但し、16日09-15時の間:ときどき

静岡空港
TAF RJNS 151105Z 1512/1618 33004KT 9999 FEW030 BKN050
BECMG 1600/1603 11005KT
BECMG 1609/1612 33004KT
日本時間15日21時-16日09時:330度から4ノットの風
09-12時:風が変化
12-18時:110度から5ノットの風
18-21時:風が変化
21時-17日03時:330度から4ノットの風

福岡空港
TAF RJFF 151106Z 1512/1618 32005KT 9999 FEW020 SCT045
BECMG 1513/1515 14004KT
BECMG 1600/1603 05005KT
BECMG 1609/1612 13004KT
日本時間15日21-22時:320度から5ノットの風
22-24時:風が変化
16日00-09時:140度から4ノットの風
09-12時:風が変化
12-18時:050度から5ノットの風
18-21時:風が変化
21時-17日03時:130度から4ノットの風

那覇空港
TAF ROAH 151106Z 1512/1618 12009KT 9999 FEW015
日本時間15日21時-17日03時:120度から9ノットの風

石垣空港
TAF ROIG 151109Z 1512/1618 11012KT 9999 FEW010 SCT025
BECMG 1609/1612 11024KT
TEMPO 1609/1618 11028G38KT
日本時間15日21時-16日18時:110度から12ノットの風
18-21時:風が変化
21時-17日03時:110度から24ノットの風
但し、16日18時-17日03時の間:ときどき110度から28ノット、突風38ノット

マウイのカフルイ空港
PHOG 151135Z 1512/1612 09005KT P6SM VCSH SCT020 BKN045
FM152000 07015KT P6SM VCSH SCT020 BKN045
FM160600 09005KT P6SM VCSH SCT020 BKN045
ハワイ時間15日02-10時:090度から5ノットの風
10-20時:070度から15ノットの風
20時-16日02時:090度から5ノットの風

サイパン空港
TAF PGSN 151137Z 1512/1612 12007KT P6SM VCSH FEW018 SCT040
FM160200 12011KT P6SM VCSH SCT018 SCT040
マリアナ時間15日22時-16日12時:120度から7ノットの風
12-22時:120度から11ノットの風

ジャンル:
ウェブログ
コメント   この記事についてブログを書く
この記事をはてなブックマークに追加
« 9/13-9/15の航空気象通報 | トップ | 9/16-9/18の航空気象通報 »
最近の画像もっと見る

コメントを投稿

ブログ作成者から承認されるまでコメントは反映されません。

TAF」カテゴリの最新記事

トラックバック

この記事のトラックバック  Ping-URL
ブログ作成者から承認されるまでトラックバックは反映されません。
  • 30日以上前の記事に対するトラックバックは受け取らないよう設定されております。
  • 送信元の記事内容が半角英数のみのトラックバックは受け取らないよう設定されております。
  • このブログへのリンクがない記事からのトラックバックは受け取らないよう設定されております。
  • ※ブログ管理者のみ、編集画面で設定の変更が可能です。